createdAt,value
2023-04-25T00:01:41.266Z,84.83
2023-04-25T00:04:09.020Z,84.90
2023-04-25T00:06:37.399Z,84.90
2023-04-25T00:09:11.301Z,85.60
2023-04-25T00:11:38.234Z,85.81
2023-04-25T00:14:06.572Z,85.89
2023-04-25T00:16:35.075Z,86.04
2023-04-25T00:19:04.219Z,86.00
2023-04-25T00:21:32.707Z,86.09
2023-04-25T00:24:00.405Z,86.08
2023-04-25T00:26:27.448Z,86.13
2023-04-25T00:28:55.633Z,86.12
2023-04-25T00:31:22.340Z,86.16
2023-04-25T00:33:50.327Z,86.34
2023-04-25T00:36:18.737Z,86.27
2023-04-25T00:38:45.347Z,86.38
2023-04-25T00:41:11.950Z,86.47
2023-04-25T00:43:39.095Z,86.43
2023-04-25T00:46:05.776Z,86.24
2023-04-25T00:48:32.439Z,86.54
2023-04-25T00:51:00.205Z,86.40
2023-04-25T00:53:28.491Z,86.63
2023-04-25T00:55:55.794Z,86.20
2023-04-25T00:58:23.316Z,86.11
2023-04-25T01:00:53.243Z,86.01
2023-04-25T01:03:23.850Z,86.05
2023-04-25T01:05:52.046Z,85.84
2023-04-25T01:08:18.572Z,85.36
2023-04-25T01:10:45.217Z,85.29
2023-04-25T01:13:11.961Z,84.83
2023-04-25T01:15:38.636Z,85.02
2023-04-25T01:18:06.602Z,84.63
2023-04-25T01:20:33.692Z,84.46
2023-04-25T01:23:01.465Z,84.56
2023-04-25T01:25:28.158Z,84.47
2023-04-25T01:27:54.930Z,84.49
2023-04-25T01:30:21.578Z,84.32
2023-04-25T01:32:49.353Z,84.48
2023-04-25T01:35:16.114Z,84.55
2023-04-25T01:37:44.274Z,84.65
2023-04-25T01:40:12.451Z,84.91
2023-04-25T01:42:41.986Z,84.78
2023-04-25T01:45:09.818Z,84.90
2023-04-25T01:47:36.552Z,85.09
2023-04-25T01:50:05.454Z,85.44
2023-04-25T01:52:32.089Z,85.58
2023-04-25T01:55:00.703Z,85.28
2023-04-25T01:57:27.371Z,85.41
2023-04-25T01:59:59.901Z,85.21
2023-04-25T02:02:27.772Z,85.02
2023-04-25T02:04:55.711Z,85.13
2023-04-25T02:07:22.245Z,85.83
2023-04-25T02:09:50.740Z,86.16
2023-04-25T02:12:17.377Z,86.24
2023-04-25T02:14:44.085Z,85.61
2023-04-25T02:17:13.899Z,85.68
2023-04-25T02:19:40.783Z,85.45
2023-04-25T02:22:07.454Z,85.18
2023-04-25T02:24:35.038Z,84.99
2023-04-25T02:27:03.459Z,85.16
2023-04-25T02:29:32.328Z,85.04
2023-04-25T02:31:59.001Z,85.37
2023-04-25T02:34:25.688Z,85.37
2023-04-25T02:36:52.367Z,85.74
2023-04-25T02:39:19.173Z,85.77
2023-04-25T02:41:46.682Z,85.61
2023-04-25T02:44:13.461Z,85.38
2023-04-25T02:46:40.686Z,84.64
2023-04-25T02:49:09.985Z,84.84
2023-04-25T02:51:38.958Z,84.77
2023-04-25T02:54:06.805Z,84.57
2023-04-25T02:56:33.446Z,84.61
2023-04-25T02:59:00.057Z,84.85
2023-04-25T03:01:26.723Z,84.66
2023-04-25T03:03:55.316Z,84.55
2023-04-25T03:06:22.379Z,84.60
2023-04-25T03:08:48.995Z,84.44
2023-04-25T03:11:15.619Z,84.26
2023-04-25T03:13:42.323Z,84.19
2023-04-25T03:16:09.052Z,84.15
2023-04-25T03:18:35.700Z,84.05
2023-04-25T03:21:02.331Z,83.76
2023-04-25T03:23:28.925Z,83.92
2023-04-25T03:25:55.600Z,84.13
2023-04-25T03:28:25.430Z,84.02
2023-04-25T03:30:52.633Z,84.04
2023-04-25T03:33:19.225Z,83.92
2023-04-25T03:35:46.947Z,83.92
2023-04-25T03:38:14.592Z,84.25
2023-04-25T03:40:41.590Z,84.13
2023-04-25T03:43:09.520Z,84.19
2023-04-25T03:45:36.302Z,84.49
2023-04-25T03:48:03.116Z,84.28
2023-04-25T03:50:29.770Z,84.49
2023-04-25T03:52:56.371Z,84.66
2023-04-25T03:55:23.091Z,84.78
2023-04-25T03:57:49.769Z,84.84
2023-04-25T04:00:16.576Z,84.85
2023-04-25T04:02:45.318Z,84.98
2023-04-25T04:05:12.344Z,85.11
2023-04-25T04:07:41.275Z,85.21
2023-04-25T04:10:13.643Z,85.66
2023-04-25T04:12:40.620Z,85.77
2023-04-25T04:15:08.876Z,85.82
2023-04-25T04:17:36.674Z,86.01
2023-04-25T04:20:04.833Z,86.11
2023-04-25T04:22:31.529Z,86.03
2023-04-25T04:24:58.725Z,86.25
2023-04-25T04:27:25.441Z,86.47
2023-04-25T04:29:53.479Z,86.44
2023-04-25T04:32:20.181Z,86.46
2023-04-25T04:34:48.537Z,86.27
2023-04-25T04:37:16.046Z,86.52
2023-04-25T04:39:42.743Z,86.40
2023-04-25T04:42:10.067Z,86.34
2023-04-25T04:44:37.834Z,86.47
2023-04-25T04:47:07.297Z,86.43
2023-04-25T04:49:34.895Z,86.25
2023-04-25T04:52:01.901Z,86.04
2023-04-25T04:54:28.822Z,86.19
2023-04-25T04:56:57.280Z,86.07
2023-04-25T04:59:23.869Z,86.18
2023-04-25T05:01:51.827Z,86.21
2023-04-25T05:04:18.508Z,86.47
2023-04-25T05:06:48.650Z,86.45
2023-04-25T05:09:16.438Z,86.32
2023-04-25T05:11:43.042Z,86.12
2023-04-25T05:14:09.656Z,86.25
2023-04-25T05:16:37.491Z,86.24
2023-04-25T05:19:04.074Z,85.92
2023-04-25T05:21:32.549Z,85.87
2023-04-25T05:23:59.185Z,86.06
2023-04-25T05:26:25.956Z,86.23
2023-04-25T05:28:52.554Z,86.23
2023-04-25T05:31:19.121Z,86.39
2023-04-25T05:33:45.763Z,86.25
2023-04-25T05:36:12.353Z,85.78
2023-04-25T05:38:39.333Z,85.85
2023-04-25T05:41:08.514Z,85.61
2023-04-25T05:43:35.208Z,85.28
2023-04-25T05:46:02.230Z,85.02
2023-04-25T05:48:33.591Z,84.87
2023-04-25T05:51:00.237Z,84.94
2023-04-25T05:53:27.051Z,84.98
2023-04-25T05:55:53.862Z,84.93
2023-04-25T05:58:20.657Z,84.47
2023-04-25T06:00:47.482Z,84.14
2023-04-25T06:03:19.548Z,84.47
2023-04-25T06:05:47.403Z,84.17
2023-04-25T06:08:14.080Z,84.10
2023-04-25T06:10:40.909Z,83.66
2023-04-25T06:13:07.573Z,83.59
2023-04-25T06:15:35.387Z,83.08
2023-04-25T06:18:02.263Z,82.55
2023-04-25T06:20:29.271Z,81.42
2023-04-25T06:22:55.972Z,81.01
2023-04-25T06:25:22.577Z,80.73
2023-04-25T06:27:49.262Z,80.50
2023-04-25T06:33:41.127Z,79.26
2023-04-25T06:36:08.063Z,79.58
2023-04-25T06:38:35.980Z,79.10
2023-04-25T06:41:02.886Z,78.56
2023-04-25T06:43:29.976Z,77.79
2023-04-25T06:45:57.258Z,77.59
2023-04-25T06:48:23.868Z,77.65
2023-04-25T06:50:50.543Z,77.51
2023-04-25T06:53:17.156Z,76.93
2023-04-25T06:55:43.742Z,77.02
2023-04-25T06:58:10.398Z,77.33
2023-04-25T07:00:37.573Z,76.96
2023-04-25T07:03:04.520Z,76.89
2023-04-25T07:05:31.250Z,76.30
2023-04-25T07:07:58.960Z,76.73
2023-04-25T07:10:26.366Z,76.57
2023-04-25T07:12:53.031Z,76.04
2023-04-25T07:15:19.722Z,76.04
2023-04-25T07:17:46.472Z,76.68
2023-04-25T07:20:13.661Z,77.33
2023-04-25T07:22:40.266Z,77.87
2023-04-25T07:25:07.537Z,77.51
2023-04-25T07:27:34.196Z,77.48
2023-04-25T07:30:00.872Z,77.20
2023-04-25T07:32:28.106Z,77.54
2023-04-25T07:34:54.780Z,77.05
2023-04-25T07:37:21.587Z,76.34
2023-04-25T07:39:48.595Z,75.89
2023-04-25T07:42:15.717Z,76.05
2023-04-25T07:44:43.853Z,74.36
2023-04-25T07:47:10.902Z,73.72
2023-04-25T07:49:38.445Z,73.65
2023-04-25T07:52:07.261Z,71.55
2023-04-25T07:54:33.932Z,71.83
2023-04-25T07:57:00.924Z,70.87
2023-04-25T07:59:29.998Z,70.52
2023-04-25T08:01:58.602Z,69.56
2023-04-25T08:04:26.879Z,68.81
2023-04-25T08:06:55.033Z,69.06
2023-04-25T08:09:23.258Z,68.51
2023-04-25T08:11:50.097Z,68.70
2023-04-25T08:14:16.807Z,69.29
2023-04-25T08:16:43.548Z,69.36
2023-04-25T08:19:11.454Z,70.04
2023-04-25T08:21:38.143Z,70.40
2023-04-25T08:24:05.170Z,69.57
2023-04-25T08:26:31.854Z,69.29
2023-04-25T08:28:58.560Z,69.63
2023-04-25T08:31:26.435Z,69.28
2023-04-25T08:33:53.242Z,70.12
2023-04-25T08:36:37.928Z,70.81
2023-04-25T08:39:05.814Z,70.21
2023-04-25T08:41:32.876Z,70.31
2023-04-25T08:44:02.169Z,70.19
2023-04-25T08:46:29.875Z,70.04
2023-04-25T08:49:02.001Z,70.77
2023-04-25T08:51:32.934Z,70.75
2023-04-25T08:54:30.961Z,71.57
2023-04-25T08:56:59.164Z,71.89
2023-04-25T08:59:26.674Z,72.32
2023-04-25T09:01:53.323Z,71.65
2023-04-25T09:04:21.540Z,70.83
2023-04-25T09:06:49.212Z,69.76
2023-04-25T09:09:16.079Z,69.11
2023-04-25T09:11:43.914Z,65.91
2023-04-25T09:14:15.241Z,62.59
2023-04-25T09:17:14.469Z,60.62
2023-04-25T09:19:42.247Z,61.03
2023-04-25T09:22:10.856Z,62.38
2023-04-25T09:24:40.077Z,63.38
2023-04-25T09:27:19.034Z,64.81
2023-04-25T09:29:45.805Z,65.54
2023-04-25T09:32:24.538Z,65.65
2023-04-25T09:34:56.677Z,65.95
2023-04-25T09:37:26.377Z,65.76
2023-04-25T09:39:56.857Z,65.55
2023-04-25T09:42:30.073Z,61.86
2023-04-25T09:44:57.649Z,57.33
2023-04-25T09:47:26.588Z,54.41
2023-04-25T09:49:54.555Z,54.78
2023-04-25T09:52:23.251Z,57.50
2023-04-25T09:54:52.286Z,59.57
2023-04-25T09:57:24.661Z,60.82
2023-04-25T09:59:53.807Z,59.70
2023-04-25T10:02:22.957Z,59.72
2023-04-25T10:04:56.617Z,59.50
2023-04-25T10:07:27.784Z,59.67
2023-04-25T10:10:05.549Z,57.58
2023-04-25T10:12:32.480Z,57.25
2023-04-25T10:15:00.590Z,58.17
2023-04-25T10:17:29.419Z,57.24
2023-04-25T10:19:56.634Z,57.48
2023-04-25T10:22:36.333Z,55.89
2023-04-25T10:25:07.210Z,53.49
2023-04-25T10:27:35.137Z,52.87
2023-04-25T10:30:04.972Z,55.72
2023-04-25T10:32:33.861Z,57.78
2023-04-25T10:35:14.456Z,58.33
2023-04-25T10:37:58.480Z,59.71
2023-04-25T10:40:25.138Z,59.83
2023-04-25T10:42:58.072Z,59.72
2023-04-25T10:45:24.803Z,60.21
2023-04-25T10:47:51.578Z,60.11
2023-04-25T10:50:18.972Z,59.89
2023-04-25T10:52:45.921Z,59.83
2023-04-25T10:55:12.829Z,59.93
2023-04-25T10:57:45.303Z,58.26
2023-04-25T11:00:19.743Z,57.12
2023-04-25T11:02:48.105Z,57.24
2023-04-25T11:05:24.456Z,56.20
2023-04-25T11:08:03.802Z,56.77
2023-04-25T11:10:37.546Z,56.99
2023-04-25T11:13:04.908Z,54.36
2023-04-25T11:15:31.605Z,51.84
2023-04-25T11:17:58.246Z,52.57
2023-04-25T11:20:28.504Z,52.67
2023-04-25T11:22:58.262Z,53.41
2023-04-25T11:25:26.185Z,54.05
2023-04-25T11:27:53.736Z,52.25
2023-04-25T11:30:21.963Z,49.26
2023-04-25T11:32:48.987Z,48.58
2023-04-25T11:35:16.452Z,49.48
2023-04-25T11:37:45.005Z,49.52
2023-04-25T11:40:12.857Z,49.90
2023-04-25T11:42:48.825Z,51.82
2023-04-25T11:45:16.068Z,50.70
2023-04-25T11:47:43.041Z,50.45
2023-04-25T11:50:10.396Z,49.43
2023-04-25T11:52:48.060Z,47.10
2023-04-25T11:55:17.586Z,46.24
2023-04-25T11:57:45.724Z,45.06
2023-04-25T12:00:22.796Z,44.83
2023-04-25T12:02:54.445Z,44.73
2023-04-25T12:07:54.208Z,46.94
2023-04-25T12:10:22.079Z,47.49
2023-04-25T12:12:49.966Z,48.29
2023-04-25T12:15:25.879Z,47.47
2023-04-25T12:17:55.022Z,46.21
2023-04-25T12:20:26.272Z,45.88
2023-04-25T12:22:53.568Z,46.57
2023-04-25T12:25:36.664Z,46.57
2023-04-25T12:28:15.333Z,47.16
2023-04-25T12:30:59.066Z,47.52
2023-04-25T12:33:28.753Z,49.11
2023-04-25T12:35:56.154Z,49.77
2023-04-25T12:38:23.641Z,50.46
2023-04-25T12:40:51.109Z,52.17
2023-04-25T12:43:18.352Z,53.48
2023-04-25T12:45:46.410Z,53.78
2023-04-25T12:48:14.079Z,54.55
2023-04-25T12:50:40.837Z,55.06
2023-04-25T12:53:07.427Z,55.40
2023-04-25T12:55:34.145Z,56.25
2023-04-25T12:58:02.080Z,56.89
2023-04-25T13:00:28.695Z,56.67
2023-04-25T13:02:55.603Z,54.98
2023-04-25T13:05:23.015Z,55.16
2023-04-25T13:07:52.586Z,54.10
2023-04-25T13:10:19.253Z,53.63
2023-04-25T13:12:47.465Z,53.31
2023-04-25T13:15:14.178Z,53.50
2023-04-25T13:17:41.507Z,53.77
2023-04-25T13:20:11.999Z,53.59
2023-04-25T13:22:39.844Z,52.99
2023-04-25T13:25:07.604Z,55.03
2023-04-25T13:27:35.060Z,57.65
2023-04-25T13:30:05.854Z,55.98
2023-04-25T13:32:32.493Z,55.71
2023-04-25T13:35:00.888Z,57.76
2023-04-25T13:37:28.469Z,56.83
2023-04-25T13:39:56.501Z,55.66
2023-04-25T13:42:28.903Z,53.95
2023-04-25T13:44:56.103Z,53.45
2023-04-25T13:47:25.986Z,54.35
2023-04-25T13:49:52.632Z,53.88
2023-04-25T13:52:19.579Z,55.14
2023-04-25T13:54:46.303Z,53.28
2023-04-25T13:57:13.177Z,50.71
2023-04-25T13:59:40.490Z,51.17
2023-04-25T14:02:07.752Z,52.91
2023-04-25T14:04:34.692Z,54.10
2023-04-25T14:07:01.875Z,54.13
2023-04-25T14:09:28.551Z,54.00
2023-04-25T14:11:56.575Z,55.63
2023-04-25T14:14:24.598Z,55.78
2023-04-25T14:16:51.765Z,55.97
2023-04-25T14:19:22.412Z,56.08
2023-04-25T14:21:49.402Z,55.50
2023-04-25T14:24:16.153Z,55.11
2023-04-25T14:26:43.755Z,53.64
2023-04-25T14:29:13.245Z,52.37
2023-04-25T14:31:42.361Z,51.57
2023-04-25T14:34:12.083Z,48.81
2023-04-25T14:36:41.179Z,46.94
2023-04-25T14:39:07.807Z,48.55
2023-04-25T14:41:34.480Z,49.93
2023-04-25T14:44:01.067Z,49.40
2023-04-25T14:46:27.960Z,49.15
2023-04-25T14:48:56.988Z,50.01
2023-04-25T14:51:23.788Z,49.54
2023-04-25T14:53:51.918Z,48.21
2023-04-25T14:56:18.825Z,47.57
2023-04-25T14:58:46.695Z,47.97
2023-04-25T15:01:14.157Z,48.19
2023-04-25T15:03:43.964Z,47.61
2023-04-25T15:06:11.007Z,48.24
2023-04-25T15:08:37.783Z,49.23
2023-04-25T15:11:04.779Z,48.42
2023-04-25T15:13:32.639Z,48.41
2023-04-25T15:15:59.252Z,49.42
2023-04-25T15:18:26.011Z,50.25
2023-04-25T15:20:55.158Z,50.44
2023-04-25T15:23:22.791Z,49.84
2023-04-25T15:25:50.985Z,51.47
2023-04-25T15:28:17.937Z,53.96
2023-04-25T15:30:44.919Z,54.76
2023-04-25T15:33:11.835Z,56.43
2023-04-25T15:35:38.566Z,55.93
2023-04-25T15:38:05.513Z,55.89
2023-04-25T15:40:32.213Z,57.01
2023-04-25T15:42:59.753Z,54.75
2023-04-25T15:45:27.083Z,54.71
2023-04-25T15:47:57.083Z,54.32
2023-04-25T15:50:24.228Z,53.60
2023-04-25T15:52:51.879Z,52.69
2023-04-25T15:55:19.697Z,52.88
2023-04-25T15:57:46.256Z,53.33
2023-04-25T16:00:15.265Z,54.04
2023-04-25T16:02:44.311Z,56.62
2023-04-25T16:05:13.227Z,56.86
2023-04-25T16:07:41.929Z,57.40
2023-04-25T16:10:10.001Z,56.90
2023-04-25T16:12:37.225Z,55.98
2023-04-25T16:15:05.052Z,54.32
2023-04-25T16:17:33.457Z,53.08
2023-04-25T16:20:04.353Z,53.30
2023-04-25T16:22:32.002Z,51.69
2023-04-25T16:24:58.564Z,53.45
2023-04-25T16:27:25.798Z,54.95
2023-04-25T16:29:52.533Z,55.10
2023-04-25T16:32:19.730Z,55.13
2023-04-25T16:34:46.596Z,55.47
2023-04-25T16:37:13.524Z,55.70
2023-04-25T16:39:41.474Z,56.64
2023-04-25T16:42:08.113Z,55.81
2023-04-25T16:44:35.572Z,54.11
2023-04-25T16:47:02.664Z,53.58
2023-04-25T16:49:29.456Z,52.00
2023-04-25T16:51:56.277Z,51.22
2023-04-25T16:54:24.745Z,51.22
2023-04-25T16:56:52.732Z,50.78
2023-04-25T16:59:19.921Z,51.40
2023-04-25T17:01:46.601Z,51.77
2023-04-25T17:04:13.429Z,52.46
2023-04-25T17:06:40.198Z,52.11
2023-04-25T17:09:06.890Z,51.18
2023-04-25T17:11:33.692Z,50.48
2023-04-25T17:14:01.507Z,49.94
2023-04-25T17:16:36.741Z,49.37
2023-04-25T17:19:06.938Z,49.51
2023-04-25T17:21:34.816Z,50.24
2023-04-25T17:24:01.572Z,51.20
2023-04-25T17:26:28.933Z,52.94
2023-04-25T17:28:58.687Z,54.01
2023-04-25T17:31:26.295Z,54.70
2023-04-25T17:33:53.095Z,54.28
2023-04-25T17:36:19.986Z,54.37
2023-04-25T17:38:47.178Z,54.53
2023-04-25T17:41:15.180Z,55.09
2023-04-25T17:43:42.293Z,54.28
2023-04-25T17:46:09.090Z,53.97
2023-04-25T17:48:36.760Z,54.57
2023-04-25T17:51:03.479Z,54.13
2023-04-25T17:53:30.325Z,54.10
2023-04-25T18:14:46.275Z,53.68
2023-04-25T18:17:14.638Z,54.07
2023-04-25T18:19:43.119Z,54.98
2023-04-25T18:22:10.225Z,56.12
2023-04-25T18:24:37.578Z,56.81
2023-04-25T18:27:06.860Z,57.14
2023-04-25T18:29:34.289Z,57.47
2023-04-25T18:32:01.689Z,57.91
2023-04-25T18:34:28.456Z,58.44
2023-04-25T18:36:57.353Z,59.07
2023-04-25T18:39:26.074Z,59.32
2023-04-25T18:41:59.290Z,59.42
2023-04-25T18:44:34.018Z,59.37
2023-04-25T18:47:01.310Z,59.47
2023-04-25T18:49:28.534Z,59.70
2023-04-25T18:51:57.534Z,59.83
2023-04-25T18:54:24.156Z,60.08
2023-04-25T18:56:51.480Z,60.33
2023-04-25T18:59:18.486Z,60.51
2023-04-25T19:01:45.931Z,60.78
2023-04-25T19:04:12.689Z,61.16
2023-04-25T19:06:39.477Z,61.60
2023-04-25T19:09:10.422Z,61.94
2023-04-25T19:11:39.274Z,62.23
2023-04-25T19:14:05.885Z,62.21
2023-04-25T19:16:38.890Z,62.65
2023-04-25T19:19:07.443Z,62.72
2023-04-25T19:21:35.564Z,62.83
2023-04-25T19:24:06.789Z,62.77
2023-04-25T19:26:33.465Z,62.83
2023-04-25T19:29:14.760Z,62.81
2023-04-25T19:31:44.354Z,62.96
2023-04-25T19:34:11.712Z,63.03
2023-04-25T19:36:40.098Z,63.31
2023-04-25T19:39:07.857Z,63.56
2023-04-25T19:41:36.398Z,64.02
2023-04-25T19:44:08.611Z,64.34
2023-04-25T19:46:36.119Z,64.41
2023-04-25T19:49:07.082Z,64.90
2023-04-25T19:51:34.523Z,64.84
2023-04-25T19:54:01.229Z,64.86
2023-04-25T19:56:28.053Z,65.26
2023-04-25T19:58:54.937Z,65.59
2023-04-25T20:01:22.584Z,65.94
2023-04-25T20:03:52.972Z,65.82
2023-04-25T20:06:19.993Z,66.29
2023-04-25T20:08:47.448Z,66.67
2023-04-25T20:11:15.404Z,66.79
2023-04-25T20:13:46.805Z,66.78
2023-04-25T20:16:19.973Z,67.16
2023-04-25T20:18:50.759Z,67.35
2023-04-25T20:21:17.792Z,67.56
2023-04-25T20:23:44.785Z,67.81
2023-04-25T20:26:12.836Z,68.03
2023-04-25T20:28:39.589Z,68.32
2023-04-25T20:31:06.706Z,68.71
2023-04-25T20:33:36.804Z,68.71
2023-04-25T20:36:03.725Z,68.63
2023-04-25T20:38:31.614Z,69.09
2023-04-25T20:40:58.585Z,68.92
2023-04-25T20:43:27.025Z,68.94
2023-04-25T20:45:54.910Z,69.17
2023-04-25T20:48:22.157Z,69.35
2023-04-25T20:50:48.863Z,69.43
2023-04-25T20:53:15.730Z,69.48
2023-04-25T20:55:42.658Z,69.91
2023-04-25T20:58:09.507Z,70.16
2023-04-25T21:00:36.433Z,70.40
2023-04-25T21:03:05.173Z,70.51
2023-04-25T21:05:33.332Z,70.73
2023-04-25T21:07:59.937Z,70.89
2023-04-25T21:10:26.660Z,71.19
2023-04-25T21:12:53.798Z,71.44
2023-04-25T21:15:21.475Z,71.53
2023-04-25T21:17:52.742Z,71.46
2023-04-25T21:20:20.921Z,71.84
2023-04-25T21:22:51.810Z,72.11
2023-04-25T21:25:25.525Z,72.37
2023-04-25T21:27:53.055Z,72.61
2023-04-25T21:30:23.381Z,73.02
2023-04-25T21:32:51.698Z,73.24
2023-04-25T21:35:23.098Z,73.33
2023-04-25T21:37:51.680Z,73.36
2023-04-25T21:40:18.951Z,73.16
2023-04-25T21:42:51.950Z,72.95
2023-04-25T21:45:22.226Z,73.15
2023-04-25T21:47:49.353Z,73.34
2023-04-25T21:50:16.470Z,73.56
2023-04-25T21:52:43.426Z,73.82
2023-04-25T21:55:11.253Z,73.82
2023-04-25T21:57:43.749Z,73.95
2023-04-25T22:00:28.943Z,74.01
2023-04-25T22:02:55.708Z,74.17
2023-04-25T22:05:24.100Z,74.11
2023-04-25T22:07:51.779Z,74.44
2023-04-25T22:10:19.846Z,74.20
2023-04-25T22:12:47.887Z,74.33
2023-04-25T22:15:14.435Z,74.78
2023-04-25T22:17:41.169Z,74.67
2023-04-25T22:20:13.536Z,74.74
2023-04-25T22:22:41.836Z,74.85
2023-04-25T22:25:17.986Z,74.78
2023-04-25T22:27:44.989Z,74.79
2023-04-25T22:30:14.980Z,75.16
2023-04-25T22:32:42.249Z,75.30
2023-04-25T22:35:09.387Z,75.46
2023-04-25T22:37:37.266Z,75.65
2023-04-25T22:40:07.273Z,75.63
2023-04-25T22:42:38.716Z,75.71
2023-04-25T22:45:07.135Z,75.63
2023-04-25T22:47:35.223Z,75.67
2023-04-25T22:50:05.856Z,75.52
2023-04-25T22:52:35.497Z,75.64
2023-04-25T22:55:03.449Z,75.32
2023-04-25T22:57:30.575Z,75.54
2023-04-25T22:59:57.777Z,75.93
2023-04-25T23:02:28.050Z,75.81
2023-04-25T23:04:57.488Z,75.94
2023-04-25T23:07:25.451Z,75.96
2023-04-25T23:09:52.202Z,76.46
2023-04-25T23:12:19.392Z,76.73
2023-04-25T23:14:53.724Z,77.42
2023-04-25T23:17:20.681Z,78.52
2023-04-25T23:19:48.436Z,79.66
2023-04-25T23:22:15.187Z,79.85
2023-04-25T23:24:42.154Z,80.36
2023-04-25T23:27:08.783Z,80.52
2023-04-25T23:29:35.642Z,80.50
2023-04-25T23:32:02.280Z,80.29
2023-04-25T23:34:32.503Z,80.28
2023-04-25T23:37:01.482Z,80.96
2023-04-25T23:39:30.070Z,81.28
2023-04-25T23:41:57.871Z,81.13
2023-04-25T23:44:24.547Z,81.22
2023-04-25T23:46:53.931Z,81.70
2023-04-25T23:49:21.142Z,81.86
2023-04-25T23:51:47.812Z,82.62
2023-04-25T23:54:16.871Z,82.91
2023-04-25T23:56:43.849Z,83.16
